Time;durP1;ratioP1;P1;durP2;ratioP2;P2;SDS_P1;SDS_P2;PMS_P1;PMS_P2;Temp;Humidity;BMP_temperature;BMP_pressure;BME280_temperature;BME280_humidity;BME280_pressure;Samples;Min_cycle;Max_cycle;Signal;HPM_P1;HPM_P2
2022/08/29 00:01:49;;;;;;;4.67;3.30;;;;;;;;;;5073258;28;20515;-73
2022/08/29 00:04:14;;;;;;;4.53;3.93;;;;;;;;;;5072622;28;20183;-74
2022/08/29 00:06:40;;;;;;;6.93;4.00;;;;;;;;;;5061532;28;20169;-74
2022/08/29 00:09:05;;;;;;;6.03;4.17;;;;;;;;;;5055119;28;20169;-74
2022/08/29 00:11:30;;;;;;;8.33;4.17;;;;;;;;;;5046641;28;20469;-74
2022/08/29 00:13:55;;;;;;;4.37;3.90;;;;;;;;;;5041684;28;20260;-74
2022/08/29 00:16:21;;;;;;;5.77;4.10;;;;;;;;;;5046571;28;20196;-74
2022/08/29 00:18:46;;;;;;;3.87;3.50;;;;;;;;;;5053036;28;20172;-74
2022/08/29 00:21:11;;;;;;;4.63;3.63;;;;;;;;;;5052938;28;20156;-74
2022/08/29 00:23:36;;;;;;;5.03;4.13;;;;;;;;;;5052993;28;20179;-74
2022/08/29 00:26:02;;;;;;;4.70;3.70;;;;;;;;;;5052296;28;20181;-74
2022/08/29 00:28:27;;;;;;;3.57;3.27;;;;;;;;;;5051697;28;20176;-74
2022/08/29 00:30:53;;;;;;;4.57;3.70;;;;;;;;;;5052545;28;20223;-74
2022/08/29 00:33:18;;;;;;;5.27;3.80;;;;;;;;;;5059590;28;20466;-74
2022/08/29 00:35:44;;;;;;;6.80;4.57;;;;;;;;;;5039768;28;20191;-74
2022/08/29 00:38:10;;;;;;;4.60;3.70;;;;;;;;;;5054623;28;20234;-74
2022/08/29 00:40:37;;;;;;;5.37;4.00;;;;;;;;;;5054127;28;20179;-74
2022/08/29 00:43:03;;;;;;;4.77;3.53;;;;;;;;;;5046702;28;20169;-74
2022/08/29 00:45:28;;;;;;;6.90;3.60;;;;;;;;;;5052572;28;20171;-74
2022/08/29 00:47:56;;;;;;;9.67;4.37;;;;;;;;;;5049415;28;20174;-74
2022/08/29 00:50:30;;;;;;;5.03;3.60;;;;;;;;;;5072340;28;20207;-74
2022/08/29 00:52:56;;;;;;;4.70;3.63;;;;;;;;;;5054310;28;20235;-73
2022/08/29 00:55:23;;;;;;;5.93;4.07;;;;;;;;;;5050656;28;20273;-74
2022/08/29 00:57:52;;;;;;;4.97;3.90;;;;;;;;;;5034836;28;20217;-74
2022/08/29 01:00:17;;;;;;;7.37;4.30;;;;;;;;;;5032111;28;20172;-73
2022/08/29 01:02:43;;;;;;;4.73;3.80;;;;;;;;;;5030761;28;20190;-74
2022/08/29 01:05:10;;;;;;;5.10;3.70;;;;;;;;;;5031158;28;20188;-74
2022/08/29 01:07:35;;;;;;;6.27;4.47;;;;;;;;;;5031043;28;20219;-74
2022/08/29 01:10:01;;;;;;;4.83;4.27;;;;;;;;;;5030995;28;20196;-74
2022/08/29 01:12:27;;;;;;;6.30;3.30;;;;;;;;;;5030782;28;20260;-73
2022/08/29 01:14:53;;;;;;;4.87;3.63;;;;;;;;;;5042464;28;20230;-74
2022/08/29 01:17:23;;;;;;;5.23;4.17;;;;;;;;;;5048435;28;20215;-74
2022/08/29 01:20:11;;;;;;;6.40;3.87;;;;;;;;;;5041209;28;20233;-74
2022/08/29 01:22:56;;;;;;;4.53;4.00;;;;;;;;;;4984524;28;20347;-74
2022/08/29 01:25:23;;;;;;;4.43;3.90;;;;;;;;;;5030781;28;20223;-73
2022/08/29 01:28:14;;;;;;;4.83;4.33;;;;;;;;;;5031298;28;20184;-74
2022/08/29 01:30:56;;;;;;;6.03;4.03;;;;;;;;;;5032596;28;20228;-74
2022/08/29 01:33:21;;;;;;;4.70;3.77;;;;;;;;;;5047558;28;20182;-73
2022/08/29 01:35:46;;;;;;;4.33;3.33;;;;;;;;;;5030235;28;20200;-74
2022/08/29 01:38:26;;;;;;;4.57;3.83;;;;;;;;;;5029764;28;20263;-74
2022/08/29 01:40:51;;;;;;;3.87;3.57;;;;;;;;;;5031959;28;20184;-74
2022/08/29 01:43:17;;;;;;;9.93;4.40;;;;;;;;;;5039988;28;20174;-73
2022/08/29 01:45:42;;;;;;;5.67;4.10;;;;;;;;;;5051245;28;20158;-74
2022/08/29 01:48:07;;;;;;;5.13;4.10;;;;;;;;;;5049349;28;20174;-74
2022/08/29 01:50:32;;;;;;;5.30;3.63;;;;;;;;;;5048355;28;20264;-74
2022/08/29 01:52:58;;;;;;;4.67;4.03;;;;;;;;;;5050939;28;20159;-74
2022/08/29 01:55:23;;;;;;;5.23;4.40;;;;;;;;;;5050167;28;20229;-74
2022/08/29 01:57:48;;;;;;;8.57;4.10;;;;;;;;;;5050776;28;20200;-73
2022/08/29 02:00:14;;;;;;;6.03;4.63;;;;;;;;;;5049933;28;20200;-74
2022/08/29 02:02:41;;;;;;;6.17;4.50;;;;;;;;;;5050950;28;20171;-74
2022/08/29 02:05:09;;;;;;;7.03;3.63;;;;;;;;;;5038900;28;20186;-74
2022/08/29 02:07:34;;;;;;;6.00;4.37;;;;;;;;;;5046663;28;20171;-74
2022/08/29 02:09:59;;;;;;;5.53;4.40;;;;;;;;;;5046551;28;20175;-74
2022/08/29 02:12:25;;;;;;;5.10;4.03;;;;;;;;;;5038770;28;20183;-74
2022/08/29 02:14:50;;;;;;;7.23;4.80;;;;;;;;;;5038051;28;20187;-73
2022/08/29 02:17:15;;;;;;;5.17;4.13;;;;;;;;;;5042067;28;20215;-73
2022/08/29 02:19:41;;;;;;;4.80;3.93;;;;;;;;;;5034499;28;20175;-74
2022/08/29 02:22:06;;;;;;;6.00;4.70;;;;;;;;;;5029815;28;20186;-74
2022/08/29 02:24:32;;;;;;;5.90;4.53;;;;;;;;;;5030976;28;20170;-74
2022/08/29 02:26:57;;;;;;;5.07;4.57;;;;;;;;;;5030502;28;20176;-74
2022/08/29 02:29:23;;;;;;;5.77;4.50;;;;;;;;;;5029543;28;20171;-74
2022/08/29 02:31:49;;;;;;;6.90;4.33;;;;;;;;;;5046065;28;20260;-73
2022/08/29 02:34:14;;;;;;;6.13;4.63;;;;;;;;;;5039493;28;20231;-74
2022/08/29 02:36:39;;;;;;;5.20;4.13;;;;;;;;;;5042314;28;20202;-73
2022/08/29 02:39:05;;;;;;;7.30;5.10;;;;;;;;;;5038349;28;20267;-74
2022/08/29 02:41:30;;;;;;;5.23;4.73;;;;;;;;;;5031812;28;20169;-73
2022/08/29 02:43:56;;;;;;;6.33;4.27;;;;;;;;;;5044474;28;20182;-73
2022/08/29 02:46:21;;;;;;;6.23;4.10;;;;;;;;;;5047021;28;20230;-74
2022/08/29 02:48:46;;;;;;;4.93;3.83;;;;;;;;;;5038320;28;20205;-74
2022/08/29 02:51:26;;;;;;;6.13;4.07;;;;;;;;;;5030654;28;20281;-74
2022/08/29 02:53:52;;;;;;;7.50;4.63;;;;;;;;;;5034841;28;20171;-73
2022/08/29 02:56:17;;;;;;;5.40;4.40;;;;;;;;;;5037237;28;20304;-74
2022/08/29 02:58:42;;;;;;;5.43;4.93;;;;;;;;;;5036901;28;20196;-73
2022/08/29 03:01:08;;;;;;;6.43;5.23;;;;;;;;;;5036626;28;20168;-73
2022/08/29 03:03:34;;;;;;;6.97;5.13;;;;;;;;;;5052810;28;20174;-73
2022/08/29 03:05:59;;;;;;;7.20;5.27;;;;;;;;;;5054644;28;20179;-73
2022/08/29 03:08:24;;;;;;;5.83;5.07;;;;;;;;;;5036591;28;20174;-74
2022/08/29 03:10:49;;;;;;;5.23;4.73;;;;;;;;;;5036527;28;20181;-73
2022/08/29 03:13:16;;;;;;;5.70;5.07;;;;;;;;;;5041247;28;20239;-73
2022/08/29 03:15:41;;;;;;;4.90;4.50;;;;;;;;;;5051238;28;20179;-73
2022/08/29 03:18:06;;;;;;;5.97;4.63;;;;;;;;;;5035871;28;20186;-74
2022/08/29 03:20:33;;;;;;;6.30;4.97;;;;;;;;;;5036426;28;20175;-74
2022/08/29 03:22:58;;;;;;;7.47;4.87;;;;;;;;;;5053141;28;20257;-74
2022/08/29 03:25:23;;;;;;;6.37;5.23;;;;;;;;;;5073781;28;20197;-74
2022/08/29 03:27:48;;;;;;;6.13;5.53;;;;;;;;;;5055749;28;20243;-74
2022/08/29 03:30:15;;;;;;;7.70;5.47;;;;;;;;;;5056214;28;20280;-73
2022/08/29 03:32:40;;;;;;;5.53;4.00;;;;;;;;;;5054202;28;20173;-74
2022/08/29 03:35:07;;;;;;;6.93;4.80;;;;;;;;;;5055656;28;20281;-73
2022/08/29 03:37:32;;;;;;;6.70;4.97;;;;;;;;;;5073550;28;20195;-73
2022/08/29 03:39:57;;;;;;;6.40;5.80;;;;;;;;;;5055641;28;20266;-73
2022/08/29 03:42:23;;;;;;;8.50;5.53;;;;;;;;;;5044980;28;20212;-74
2022/08/29 03:44:48;;;;;;;8.13;5.50;;;;;;;;;;5035783;28;20225;-73
2022/08/29 03:47:14;;;;;;;6.63;5.17;;;;;;;;;;5035657;28;20216;-74
2022/08/29 03:49:39;;;;;;;8.27;7.47;;;;;;;;;;5035867;28;20273;-73
2022/08/29 03:52:05;;;;;;;7.47;5.53;;;;;;;;;;5051940;28;20267;-74
2022/08/29 03:54:30;;;;;;;6.37;5.73;;;;;;;;;;5031906;28;20228;-74
2022/08/29 03:56:56;;;;;;;8.17;6.00;;;;;;;;;;5033399;28;20237;-74
2022/08/29 03:59:21;;;;;;;5.97;5.33;;;;;;;;;;5032193;28;20165;-74
2022/08/29 04:01:47;;;;;;;7.00;6.37;;;;;;;;;;5033066;28;20175;-74
2022/08/29 04:05:05;;;;;;;7.73;6.03;;;;;;;;;;5032461;28;20184;-73
2022/08/29 04:06:58;;;;;;;8.60;5.13;;;;;;;;;;5033218;28;20181;-73
2022/08/29 04:09:23;;;;;;;6.07;5.47;;;;;;;;;;5031745;28;20176;-74
2022/08/29 04:11:49;;;;;;;6.23;5.57;;;;;;;;;;5037542;28;20176;-73
2022/08/29 04:14:14;;;;;;;5.70;5.20;;;;;;;;;;5033778;28;20210;-73
2022/08/29 04:16:39;;;;;;;8.60;4.73;;;;;;;;;;5031627;28;20336;-76
2022/08/29 04:19:04;;;;;;;7.07;5.77;;;;;;;;;;5035711;28;20176;-74
2022/08/29 04:21:29;;;;;;;6.23;5.63;;;;;;;;;;5051834;28;20228;-74
2022/08/29 04:23:55;;;;;;;7.50;6.73;;;;;;;;;;5051544;28;20178;-74
2022/08/29 04:26:20;;;;;;;7.57;6.30;;;;;;;;;;5051613;28;20170;-74
2022/08/29 04:28:45;;;;;;;7.10;6.50;;;;;;;;;;5052241;28;20172;-74
2022/08/29 04:31:19;;;;;;;7.53;6.73;;;;;;;;;;5052358;28;20179;-73
2022/08/29 04:33:45;;;;;;;7.07;6.40;;;;;;;;;;5045977;28;20224;-73
2022/08/29 04:36:11;;;;;;;6.63;6.00;;;;;;;;;;5048580;28;20256;-74
2022/08/29 04:38:36;;;;;;;9.37;6.37;;;;;;;;;;5051524;28;20173;-74
2022/08/29 04:41:03;;;;;;;8.77;5.83;;;;;;;;;;5052174;28;20203;-73
2022/08/29 04:43:29;;;;;;;7.97;6.53;;;;;;;;;;5043520;28;20225;-74
2022/08/29 04:45:55;;;;;;;7.43;6.63;;;;;;;;;;5052333;28;20171;-74
2022/08/29 04:48:20;;;;;;;7.77;6.97;;;;;;;;;;5042358;28;20182;-73
2022/08/29 04:51:11;;;;;;;9.20;7.37;;;;;;;;;;5052219;28;20171;-73
2022/08/29 04:53:36;;;;;;;8.33;6.77;;;;;;;;;;5047442;28;20175;-74
2022/08/29 04:56:02;;;;;;;7.47;6.80;;;;;;;;;;5033316;28;20370;-74
2022/08/29 04:58:28;;;;;;;8.03;7.17;;;;;;;;;;5032011;28;20162;-73
2022/08/29 05:00:54;;;;;;;9.70;7.63;;;;;;;;;;5031130;28;20195;-73
2022/08/29 05:03:19;;;;;;;8.80;7.87;;;;;;;;;;5047765;28;20264;-73
2022/08/29 05:05:44;;;;;;;11.60;8.90;;;;;;;;;;5031910;28;20181;-75
2022/08/29 05:08:10;;;;;;;10.70;9.33;;;;;;;;;;5047248;28;20177;-73
2022/08/29 05:10:36;;;;;;;9.67;7.13;;;;;;;;;;5031624;28;20508;-74
2022/08/29 05:13:01;;;;;;;10.07;8.27;;;;;;;;;;5049939;28;20260;-74
2022/08/29 05:15:30;;;;;;;7.97;7.03;;;;;;;;;;5031144;28;20233;-74
2022/08/29 05:17:55;;;;;;;9.27;8.03;;;;;;;;;;5031699;28;20256;-74
2022/08/29 05:20:21;;;;;;;15.87;7.93;;;;;;;;;;5030869;28;20176;-74
2022/08/29 05:22:46;;;;;;;10.47;7.67;;;;;;;;;;5030475;28;20178;-74
2022/08/29 05:25:12;;;;;;;8.77;7.77;;;;;;;;;;5030488;28;20202;-73
2022/08/29 05:27:38;;;;;;;10.17;7.73;;;;;;;;;;5030436;28;20172;-73
2022/08/29 05:30:04;;;;;;;8.53;7.23;;;;;;;;;;5031188;28;20230;-74
2022/08/29 05:32:29;;;;;;;11.30;8.23;;;;;;;;;;5049190;28;20204;-74
2022/08/29 05:34:54;;;;;;;8.20;7.00;;;;;;;;;;5041837;28;20202;-74
2022/08/29 05:37:20;;;;;;;10.33;7.40;;;;;;;;;;5050002;28;20207;-74
2022/08/29 05:39:47;;;;;;;7.80;6.93;;;;;;;;;;5050952;28;20166;-74
2022/08/29 05:42:13;;;;;;;9.73;7.73;;;;;;;;;;5041500;28;20176;-74
2022/08/29 05:44:38;;;;;;;8.77;7.17;;;;;;;;;;5050012;28;20194;-73
2022/08/29 05:47:05;;;;;;;8.33;6.90;;;;;;;;;;5031134;28;20329;-74
2022/08/29 05:49:30;;;;;;;8.67;6.00;;;;;;;;;;5030154;28;20179;-74
2022/08/29 05:51:56;;;;;;;7.83;6.53;;;;;;;;;;5029633;28;20194;-74
2022/08/29 05:54:21;;;;;;;6.63;5.93;;;;;;;;;;5029710;28;20446;-74
2022/08/29 05:56:47;;;;;;;5.90;5.30;;;;;;;;;;5037688;28;20203;-74
2022/08/29 05:59:12;;;;;;;7.70;5.70;;;;;;;;;;5049513;28;20178;-74
2022/08/29 06:01:38;;;;;;;10.87;7.10;;;;;;;;;;5049759;28;20219;-74
2022/08/29 06:04:04;;;;;;;8.13;5.50;;;;;;;;;;5030829;28;20190;-74
2022/08/29 06:06:29;;;;;;;10.50;6.10;;;;;;;;;;5029579;28;20178;-74
2022/08/29 06:08:55;;;;;;;6.50;5.73;;;;;;;;;;5029363;28;20234;-74
2022/08/29 06:11:22;;;;;;;7.67;5.43;;;;;;;;;;5055377;28;20165;-74
2022/08/29 06:13:47;;;;;;;6.37;5.43;;;;;;;;;;5035798;28;20292;-74
2022/08/29 06:16:14;;;;;;;6.07;5.47;;;;;;;;;;5030129;28;20291;-74
2022/08/29 06:18:39;;;;;;;12.43;6.60;;;;;;;;;;5030995;28;20182;-74
2022/08/29 06:21:05;;;;;;;6.87;5.80;;;;;;;;;;5031729;28;20260;-74
2022/08/29 06:23:30;;;;;;;7.13;5.47;;;;;;;;;;5050259;28;20180;-74
2022/08/29 06:25:56;;;;;;;9.70;6.27;;;;;;;;;;5049342;28;20265;-74
2022/08/29 06:28:21;;;;;;;10.50;6.87;;;;;;;;;;5048518;28;20193;-74
2022/08/29 06:30:46;;;;;;;9.37;8.10;;;;;;;;;;5051135;28;20162;-74
2022/08/29 06:33:12;;;;;;;10.93;6.80;;;;;;;;;;5048736;28;20221;-74
2022/08/29 06:35:38;;;;;;;8.53;6.67;;;;;;;;;;5040833;28;20174;-74
2022/08/29 06:38:03;;;;;;;7.37;6.63;;;;;;;;;;5045778;28;20204;-74
2022/08/29 06:40:28;;;;;;;8.83;7.83;;;;;;;;;;5034039;28;20235;-74
2022/08/29 06:42:53;;;;;;;7.47;6.30;;;;;;;;;;5041545;28;20162;-74
2022/08/29 06:45:18;;;;;;;6.37;5.77;;;;;;;;;;5049235;28;20180;-74
2022/08/29 06:47:45;;;;;;;7.73;6.27;;;;;;;;;;5044396;28;20175;-74
2022/08/29 06:50:10;;;;;;;7.63;6.90;;;;;;;;;;5029311;28;20172;-74
2022/08/29 06:52:35;;;;;;;8.60;7.23;;;;;;;;;;5029267;28;20175;-74
2022/08/29 06:55:01;;;;;;;7.33;6.60;;;;;;;;;;5031320;28;20245;-74
2022/08/29 06:57:26;;;;;;;11.63;10.50;;;;;;;;;;5040543;28;20226;-74
2022/08/29 06:59:52;;;;;;;8.43;7.63;;;;;;;;;;5049256;28;20179;-74
2022/08/29 07:02:17;;;;;;;8.13;6.43;;;;;;;;;;5048862;28;20216;-74
2022/08/29 07:04:42;;;;;;;9.60;8.57;;;;;;;;;;5050374;28;20175;-74
2022/08/29 07:07:08;;;;;;;8.13;7.33;;;;;;;;;;5050029;28;20179;-74
2022/08/29 07:09:33;;;;;;;7.93;7.13;;;;;;;;;;5049271;28;20174;-74
2022/08/29 07:11:58;;;;;;;8.20;7.40;;;;;;;;;;5031919;28;20267;-74
2022/08/29 07:14:23;;;;;;;8.10;6.83;;;;;;;;;;5030671;28;20169;-74
2022/08/29 07:16:48;;;;;;;9.00;7.60;;;;;;;;;;5029751;28;20199;-74
2022/08/29 07:19:14;;;;;;;10.20;9.20;;;;;;;;;;5034269;28;20238;-74
2022/08/29 07:21:40;;;;;;;9.53;7.20;;;;;;;;;;5043732;28;20167;-75
2022/08/29 07:24:05;;;;;;;8.20;7.40;;;;;;;;;;5029122;28;20203;-74
2022/08/29 07:26:35;;;;;;;10.43;9.23;;;;;;;;;;5028950;28;20399;-74
2022/08/29 07:29:02;;;;;;;8.70;7.53;;;;;;;;;;5047116;28;20280;-75
2022/08/29 07:31:28;;;;;;;11.27;7.83;;;;;;;;;;5049581;28;20490;-74
2022/08/29 07:33:53;;;;;;;9.07;7.40;;;;;;;;;;5040855;28;20204;-74
2022/08/29 07:36:18;;;;;;;9.80;7.83;;;;;;;;;;5039667;28;20186;-75
2022/08/29 07:38:43;;;;;;;7.13;6.40;;;;;;;;;;5050325;28;20189;-75
2022/08/29 07:41:10;;;;;;;7.10;6.40;;;;;;;;;;5043965;28;20261;-75
2022/08/29 07:43:36;;;;;;;7.83;7.13;;;;;;;;;;5039859;28;20208;-75
2022/08/29 07:46:08;;;;;;;7.63;6.97;;;;;;;;;;5032710;28;20192;-75
2022/08/29 07:48:33;;;;;;;6.93;6.20;;;;;;;;;;5032290;28;20260;-75
2022/08/29 07:50:58;;;;;;;10.07;7.13;;;;;;;;;;5032431;28;20216;-75
2022/08/29 07:53:24;;;;;;;7.07;6.37;;;;;;;;;;5033307;28;20184;-74
2022/08/29 07:55:49;;;;;;;7.50;6.43;;;;;;;;;;5048426;28;20233;-75
2022/08/29 07:58:14;;;;;;;6.97;6.37;;;;;;;;;;5043411;28;20264;-75
2022/08/29 08:00:39;;;;;;;8.00;7.20;;;;;;;;;;5033029;28;20246;-75
2022/08/29 08:03:05;;;;;;;9.53;7.70;;;;;;;;;;5033678;28;20176;-75
2022/08/29 08:05:30;;;;;;;6.57;5.87;;;;;;;;;;5033159;28;20174;-75
2022/08/29 08:07:56;;;;;;;8.47;7.43;;;;;;;;;;5031856;28;20237;-75
2022/08/29 08:10:21;;;;;;;8.07;7.13;;;;;;;;;;5035986;28;20205;-75
2022/08/29 08:12:46;;;;;;;7.50;6.80;;;;;;;;;;5046076;28;20174;-75
2022/08/29 08:15:12;;;;;;;8.67;6.70;;;;;;;;;;5031482;28;20181;-75
2022/08/29 08:17:38;;;;;;;8.13;7.17;;;;;;;;;;5031911;28;20293;-75
2022/08/29 08:20:06;;;;;;;7.67;6.40;;;;;;;;;;5050199;28;20178;-75
2022/08/29 08:22:31;;;;;;;9.97;6.77;;;;;;;;;;5038153;28;20178;-75
2022/08/29 08:24:56;;;;;;;7.43;6.73;;;;;;;;;;5031606;28;20176;-75
2022/08/29 08:27:22;;;;;;;6.67;6.07;;;;;;;;;;5031385;28;20171;-75
2022/08/29 08:29:47;;;;;;;6.57;5.90;;;;;;;;;;5032396;28;20167;-75
2022/08/29 08:32:13;;;;;;;7.80;6.30;;;;;;;;;;5031182;28;20202;-75
2022/08/29 08:34:38;;;;;;;6.33;5.80;;;;;;;;;;5038343;28;20192;-75
2022/08/29 08:37:07;;;;;;;6.70;5.77;;;;;;;;;;5048431;28;20206;-75
2022/08/29 08:39:32;;;;;;;9.10;6.73;;;;;;;;;;5051538;28;20167;-75
2022/08/29 08:42:21;;;;;;;6.63;6.03;;;;;;;;;;5043778;28;20192;-75
2022/08/29 08:44:48;;;;;;;5.80;5.30;;;;;;;;;;5016038;28;20272;-75
2022/08/29 08:47:17;;;;;;;7.20;6.20;;;;;;;;;;5031966;28;20192;-75
2022/08/29 08:49:51;;;;;;;6.57;5.97;;;;;;;;;;5030252;28;20176;-75
2022/08/29 08:52:22;;;;;;;6.53;5.87;;;;;;;;;;5031629;28;20346;-75
2022/08/29 08:54:54;;;;;;;6.50;5.90;;;;;;;;;;5047482;28;20275;-75
2022/08/29 08:57:20;;;;;;;7.10;5.70;;;;;;;;;;5033978;28;20203;-75
2022/08/29 08:59:47;;;;;;;7.93;6.80;;;;;;;;;;5051106;28;20229;-75
2022/08/29 09:02:15;;;;;;;9.47;5.87;;;;;;;;;;5051200;28;20176;-76
2022/08/29 09:04:52;;;;;;;6.93;6.23;;;;;;;;;;5050541;28;20176;-75
2022/08/29 09:07:21;;;;;;;7.47;5.60;;;;;;;;;;5050518;28;20180;-76
2022/08/29 09:10:05;;;;;;;8.40;5.97;;;;;;;;;;5042221;28;20207;-75
2022/08/29 09:12:36;;;;;;;6.03;5.43;;;;;;;;;;5030678;28;20189;-76
2022/08/29 09:15:12;;;;;;;7.17;5.63;;;;;;;;;;5031941;28;20174;-75
2022/08/29 09:17:46;;;;;;;6.20;5.60;;;;;;;;;;5031371;28;20235;-75
2022/08/29 09:20:31;;;;;;;6.60;6.00;;;;;;;;;;5043567;28;20172;-75
2022/08/29 09:23:17;;;;;;;6.77;5.60;;;;;;;;;;5034469;28;20187;-75
2022/08/29 09:25:42;;;;;;;9.00;5.70;;;;;;;;;;5030400;28;20237;-75
2022/08/29 09:28:07;;;;;;;6.57;5.47;;;;;;;;;;5030413;28;20184;-75
2022/08/29 09:30:33;;;;;;;5.77;5.00;;;;;;;;;;5030555;28;20520;-75
2022/08/29 09:33:00;;;;;;;5.90;5.40;;;;;;;;;;5042616;28;20255;-75
2022/08/29 09:35:35;;;;;;;6.97;5.30;;;;;;;;;;5039195;28;20211;-75
2022/08/29 09:38:22;;;;;;;6.67;5.97;;;;;;;;;;5030531;28;20226;-75
2022/08/29 09:40:49;;;;;;;5.90;5.40;;;;;;;;;;5038310;28;20176;-75
2022/08/29 09:43:19;;;;;;;5.87;5.20;;;;;;;;;;5042305;28;20405;-75
2022/08/29 09:46:04;;;;;;;6.23;5.63;;;;;;;;;;5031269;28;20178;-75
2022/08/29 09:48:30;;;;;;;6.47;5.93;;;;;;;;;;5030035;28;20262;-75
2022/08/29 09:51:12;;;;;;;6.97;6.27;;;;;;;;;;5030863;28;20172;-75
2022/08/29 09:53:38;;;;;;;9.23;6.17;;;;;;;;;;5029963;28;20366;-75
2022/08/29 09:56:06;;;;;;;7.70;5.90;;;;;;;;;;5040066;28;20245;-75
2022/08/29 09:58:37;;;;;;;8.70;6.33;;;;;;;;;;5037950;28;20189;-75
2022/08/29 10:01:09;;;;;;;8.07;6.17;;;;;;;;;;5031498;28;20177;-75
2022/08/29 10:03:36;;;;;;;7.73;5.30;;;;;;;;;;5029358;28;20166;-75
2022/08/29 10:06:07;;;;;;;6.63;6.13;;;;;;;;;;5030046;28;20180;-75
2022/08/29 10:08:34;;;;;;;7.60;5.47;;;;;;;;;;5030068;28;20193;-75
2022/08/29 10:11:01;;;;;;;7.43;5.20;;;;;;;;;;5030439;28;20175;-75
2022/08/29 10:13:32;;;;;;;5.77;5.17;;;;;;;;;;5037978;28;20181;-75
2022/08/29 10:16:20;;;;;;;6.37;5.77;;;;;;;;;;5029242;28;20174;-75
2022/08/29 10:18:48;;;;;;;5.83;5.27;;;;;;;;;;5031498;28;20175;-75
2022/08/29 10:21:26;;;;;;;5.63;5.07;;;;;;;;;;5047040;28;20240;-75
2022/08/29 10:24:02;;;;;;;5.57;5.07;;;;;;;;;;5029404;28;20174;-75
2022/08/29 10:26:39;;;;;;;6.53;5.73;;;;;;;;;;5029656;28;20173;-75
2022/08/29 10:29:12;;;;;;;8.40;5.70;;;;;;;;;;5029604;28;20178;-75
2022/08/29 10:31:41;;;;;;;5.63;5.07;;;;;;;;;;5029458;28;20178;-75
2022/08/29 10:34:20;;;;;;;5.77;5.27;;;;;;;;;;5041981;28;20205;-75
2022/08/29 10:36:50;;;;;;;5.60;5.10;;;;;;;;;;5035164;28;20198;-75
2022/08/29 10:39:20;;;;;;;5.97;5.38;;;;;;;;;;5029560;28;20217;-75
2022/08/29 10:41:46;;;;;;;6.95;5.50;;;;;;;;;;5039944;28;20174;-75
2022/08/29 10:44:11;;;;;;;7.82;5.35;;;;;;;;;;5046471;28;20166;-75
2022/08/29 10:46:43;;;;;;;6.82;6.13;;;;;;;;;;5050064;28;20279;-75
2022/08/29 10:49:20;;;;;;;6.97;4.70;;;;;;;;;;5040415;28;20175;-75
2022/08/29 10:51:55;;;;;;;5.30;4.90;;;;;;;;;;5038317;28;20188;-75
2022/08/29 10:54:29;;;;;;;5.82;5.32;;;;;;;;;;5049235;28;20214;-75
2022/08/29 10:56:55;;;;;;;7.40;5.95;;;;;;;;;;5033979;28;20201;-75
2022/08/29 10:59:20;;;;;;;5.80;5.07;;;;;;;;;;5044232;28;20182;-75
2022/08/29 11:02:02;;;;;;;6.45;5.22;;;;;;;;;;5045358;28;20178;-75
2022/08/29 11:04:42;;;;;;;7.07;4.82;;;;;;;;;;5037634;28;20178;-75
2022/08/29 11:07:20;;;;;;;7.18;5.25;;;;;;;;;;5049380;28;20348;-75
2022/08/29 11:09:49;;;;;;;6.75;6.05;;;;;;;;;;5048809;28;20268;-75
2022/08/29 11:12:33;;;;;;;7.68;5.40;;;;;;;;;;5048924;28;20165;-75
2022/08/29 11:15:03;;;;;;;6.30;5.22;;;;;;;;;;5052822;28;20173;-75
2022/08/29 11:17:31;;;;;;;7.22;5.47;;;;;;;;;;5052792;28;20209;-75
2022/08/29 11:20:04;;;;;;;5.53;5.03;;;;;;;;;;5052665;28;20174;-75
2022/08/29 11:22:33;;;;;;;6.28;5.18;;;;;;;;;;5040728;28;20198;-75
2022/08/29 11:25:06;;;;;;;6.35;4.78;;;;;;;;;;5034447;28;20167;-75
2022/08/29 11:27:36;;;;;;;5.13;4.63;;;;;;;;;;5033886;28;20450;-75
2022/08/29 11:30:06;;;;;;;5.53;4.80;;;;;;;;;;5033097;28;20225;-75
2022/08/29 11:32:38;;;;;;;5.60;4.88;;;;;;;;;;5036042;28;20509;-75
2022/08/29 11:35:12;;;;;;;5.80;5.13;;;;;;;;;;5052279;28;20186;-75
2022/08/29 11:37:56;;;;;;;7.22;5.22;;;;;;;;;;5032634;28;20289;-75
2022/08/29 11:40:21;;;;;;;6.63;4.90;;;;;;;;;;5033845;28;20195;-75
2022/08/29 11:42:47;;;;;;;6.35;5.38;;;;;;;;;;5039687;28;20170;-75
2022/08/29 11:45:20;;;;;;;6.30;4.95;;;;;;;;;;5052529;28;20170;-75
2022/08/29 11:47:46;;;;;;;5.70;5.18;;;;;;;;;;5051921;28;20194;-75
2022/08/29 11:50:28;;;;;;;7.87;6.17;;;;;;;;;;5052342;28;20216;-75
2022/08/29 11:53:08;;;;;;;5.93;5.43;;;;;;;;;;5051824;28;20419;-75
2022/08/29 11:55:38;;;;;;;6.30;4.65;;;;;;;;;;5051797;28;20301;-75
2022/08/29 11:58:26;;;;;;;7.13;5.25;;;;;;;;;;5044808;28;20209;-75
2022/08/29 12:00:53;;;;;;;5.30;4.05;;;;;;;;;;5049231;28;20179;-75
2022/08/29 12:03:33;;;;;;;5.50;5.00;;;;;;;;;;5051898;28;20174;-75
2022/08/29 12:06:04;;;;;;;5.93;5.35;;;;;;;;;;5053626;28;20166;-75
2022/08/29 12:08:34;;;;;;;6.95;5.72;;;;;;;;;;5051429;28;20170;-75
2022/08/29 12:11:00;;;;;;;7.78;5.68;;;;;;;;;;5052068;28;20176;-75
2022/08/29 12:13:44;;;;;;;6.22;4.63;;;;;;;;;;5041757;28;20171;-75
2022/08/29 12:16:10;;;;;;;6.28;5.03;;;;;;;;;;5032536;28;20185;-75
2022/08/29 12:18:42;;;;;;;7.15;5.75;;;;;;;;;;5048277;28;20224;-75
2022/08/29 12:21:26;;;;;;;5.28;4.80;;;;;;;;;;5031636;28;20175;-75
2022/08/29 12:23:51;;;;;;;7.95;5.30;;;;;;;;;;5032726;28;20200;-75
2022/08/29 12:26:35;;;;;;;6.70;5.40;;;;;;;;;;5031829;28;20260;-75
2022/08/29 12:29:00;;;;;;;5.45;4.97;;;;;;;;;;5031620;28;20178;-75
2022/08/29 12:31:28;;;;;;;6.53;4.88;;;;;;;;;;5032410;28;20301;-75
2022/08/29 12:34:01;;;;;;;5.75;4.40;;;;;;;;;;5042657;28;20194;-75
2022/08/29 12:36:29;;;;;;;4.78;4.18;;;;;;;;;;5044195;28;20219;-75
2022/08/29 12:39:11;;;;;;;6.57;5.80;;;;;;;;;;5052489;28;20170;-74
2022/08/29 12:41:45;;;;;;;5.60;5.10;;;;;;;;;;5043107;28;20261;-75
2022/08/29 12:44:11;;;;;;;6.35;5.75;;;;;;;;;;5035553;28;20241;-75
2022/08/29 12:46:39;;;;;;;9.60;6.60;;;;;;;;;;5031452;28;20179;-75
2022/08/29 12:49:13;;;;;;;6.28;4.95;;;;;;;;;;5040504;28;20171;-75
2022/08/29 12:51:39;;;;;;;8.60;5.53;;;;;;;;;;5031782;28;20181;-75
2022/08/29 12:54:05;;;;;;;5.55;5.00;;;;;;;;;;5033045;28;20170;-75
2022/08/29 12:56:30;;;;;;;9.20;5.25;;;;;;;;;;5036153;28;20201;-75
2022/08/29 12:58:57;;;;;;;8.75;5.25;;;;;;;;;;5034479;28;20265;-74
2022/08/29 13:01:30;;;;;;;7.43;5.07;;;;;;;;;;5034501;28;20175;-75
2022/08/29 13:03:56;;;;;;;6.30;5.57;;;;;;;;;;5034194;28;20203;-75
2022/08/29 13:06:21;;;;;;;7.28;5.10;;;;;;;;;;5034114;28;20261;-75
2022/08/29 13:08:47;;;;;;;6.82;5.30;;;;;;;;;;5047719;28;20189;-75
2022/08/29 13:11:12;;;;;;;6.88;5.10;;;;;;;;;;5034387;28;20224;-75
2022/08/29 13:13:38;;;;;;;7.28;5.43;;;;;;;;;;5033999;28;20166;-75
2022/08/29 13:16:05;;;;;;;5.53;5.05;;;;;;;;;;5051971;28;20170;-75
2022/08/29 13:18:31;;;;;;;6.57;5.25;;;;;;;;;;5034158;28;20257;-75
2022/08/29 13:21:15;;;;;;;6.38;5.57;;;;;;;;;;5052630;28;20182;-74
2022/08/29 13:23:44;;;;;;;7.00;5.13;;;;;;;;;;5033737;28;20174;-75
2022/08/29 13:26:11;;;;;;;5.82;5.05;;;;;;;;;;5050243;28;20262;-75
2022/08/29 13:28:36;;;;;;;6.18;4.90;;;;;;;;;;5050293;28;20181;-75
2022/08/29 13:31:07;;;;;;;4.85;4.35;;;;;;;;;;5050503;28;20171;-75
2022/08/29 13:33:33;;;;;;;5.05;4.53;;;;;;;;;;5048573;28;20194;-75
2022/08/29 13:35:58;;;;;;;5.47;5.03;;;;;;;;;;5032907;28;20171;-74
2022/08/29 13:38:25;;;;;;;5.80;5.30;;;;;;;;;;5033694;28;20166;-75
2022/08/29 13:40:51;;;;;;;6.18;4.93;;;;;;;;;;5035341;28;20173;-75
2022/08/29 13:43:32;;;;;;;6.00;5.43;;;;;;;;;;5062738;28;20208;-75
2022/08/29 13:46:01;;;;;;;6.65;5.53;;;;;;;;;;5053789;28;20200;-75
2022/08/29 13:48:27;;;;;;;6.28;5.45;;;;;;;;;;5070787;28;20314;-75
2022/08/29 13:50:52;;;;;;;8.50;5.45;;;;;;;;;;5053464;28;20204;-74
2022/08/29 13:53:18;;;;;;;5.75;5.15;;;;;;;;;;5070828;28;20166;-75
2022/08/29 13:55:43;;;;;;;6.50;4.68;;;;;;;;;;5065787;28;20221;-75
2022/08/29 13:58:09;;;;;;;5.53;5.03;;;;;;;;;;5040873;28;20216;-75
2022/08/29 14:00:34;;;;;;;8.38;5.78;;;;;;;;;;5053511;28;20215;-75
2022/08/29 14:03:00;;;;;;;7.30;5.18;;;;;;;;;;5052709;28;20173;-74
2022/08/29 14:05:26;;;;;;;7.13;5.30;;;;;;;;;;5070919;28;20184;-75
2022/08/29 14:07:51;;;;;;;6.82;4.80;;;;;;;;;;5052887;28;20260;-74
2022/08/29 14:10:16;;;;;;;5.82;5.18;;;;;;;;;;5050822;28;20220;-75
2022/08/29 14:12:42;;;;;;;7.57;5.20;;;;;;;;;;5062336;28;20255;-75
2022/08/29 14:15:08;;;;;;;5.38;4.90;;;;;;;;;;5067858;28;20209;-74
2022/08/29 14:17:34;;;;;;;5.05;4.65;;;;;;;;;;5032660;28;20201;-75
2022/08/29 14:19:59;;;;;;;7.80;5.47;;;;;;;;;;5061867;28;20239;-75
2022/08/29 14:22:24;;;;;;;5.50;5.00;;;;;;;;;;5040565;28;20257;-74
2022/08/29 14:24:52;;;;;;;7.57;5.07;;;;;;;;;;5050621;28;20196;-74
2022/08/29 14:27:19;;;;;;;6.40;4.80;;;;;;;;;;5032781;28;20178;-75
2022/08/29 14:29:44;;;;;;;7.55;5.07;;;;;;;;;;5050399;28;20174;-75
2022/08/29 14:32:09;;;;;;;6.88;5.38;;;;;;;;;;5033162;28;20180;-75
2022/08/29 14:34:35;;;;;;;5.63;5.13;;;;;;;;;;5061514;28;20202;-75
2022/08/29 14:37:00;;;;;;;5.47;4.97;;;;;;;;;;5054491;28;20202;-75
2022/08/29 14:39:29;;;;;;;6.30;4.88;;;;;;;;;;5032993;28;20177;-74
2022/08/29 14:41:54;;;;;;;9.35;5.32;;;;;;;;;;5033706;28;20171;-75
2022/08/29 14:44:21;;;;;;;4.75;4.32;;;;;;;;;;5050791;28;20170;-75
2022/08/29 14:46:46;;;;;;;6.15;5.15;;;;;;;;;;5032408;28;20171;-75
2022/08/29 14:49:11;;;;;;;6.07;5.45;;;;;;;;;;5061629;28;20203;-75